createdAt,value
2023-05-17T00:01:46.922Z,99075.38
2023-05-17T00:04:13.663Z,99076.16
2023-05-17T00:06:41.039Z,99069.53
2023-05-17T00:09:07.640Z,99074.78
2023-05-17T00:11:34.374Z,99069.91
2023-05-17T00:14:01.029Z,99072.63
2023-05-17T00:16:27.680Z,99072.22
2023-05-17T00:18:54.561Z,99064.66
2023-05-17T00:21:21.229Z,99057.50
2023-05-17T00:23:47.732Z,99069.38
2023-05-17T00:26:14.254Z,99065.31
2023-05-17T00:28:40.791Z,99070.34
2023-05-17T00:31:07.264Z,99066.59
2023-05-17T00:33:33.808Z,99071.22
2023-05-17T00:36:06.885Z,99073.03
2023-05-17T00:38:36.231Z,99074.38
2023-05-17T00:41:02.721Z,99072.69
2023-05-17T00:43:29.229Z,99074.56
2023-05-17T00:45:55.851Z,99070.88
2023-05-17T00:48:26.090Z,99077.50
2023-05-17T00:50:55.072Z,99071.22
2023-05-17T00:53:22.538Z,99075.44
2023-05-17T00:55:49.482Z,99078.16
2023-05-17T00:58:19.205Z,99080.41
2023-05-17T01:00:46.576Z,99084.31
2023-05-17T01:03:13.171Z,99089.81
2023-05-17T01:05:40.259Z,99094.75
2023-05-17T01:08:17.688Z,99088.22
2023-05-17T01:11:14.102Z,99092.59
2023-05-17T01:13:57.485Z,99093.63
2023-05-17T01:16:57.188Z,99096.56
2023-05-17T01:20:00.925Z,99088.63
2023-05-17T01:22:46.918Z,99092.59
2023-05-17T01:25:29.096Z,99101.94
2023-05-17T01:28:00.468Z,99091.59
2023-05-17T01:30:31.431Z,99102.31
2023-05-17T01:32:59.413Z,99109.06
2023-05-17T01:35:27.020Z,99105.91
2023-05-17T01:37:54.240Z,99108.91
2023-05-17T01:40:22.749Z,99115.00
2023-05-17T01:43:11.919Z,99114.84
2023-05-17T01:45:49.809Z,99119.69
2023-05-17T01:48:35.426Z,99124.44
2023-05-17T01:51:03.898Z,99121.69
2023-05-17T01:53:38.767Z,99117.31
2023-05-17T01:56:14.939Z,99118.41
2023-05-17T01:58:48.421Z,99117.78
2023-05-17T02:01:25.964Z,99122.31
2023-05-17T02:03:52.509Z,99121.44
2023-05-17T02:06:19.031Z,99139.09
2023-05-17T02:08:45.670Z,99133.31
2023-05-17T02:11:17.446Z,99131.31
2023-05-17T02:13:43.987Z,99125.94
2023-05-17T02:16:11.000Z,99130.84
2023-05-17T02:18:38.112Z,99123.41
2023-05-17T02:21:05.293Z,99129.19
2023-05-17T02:23:31.837Z,99128.13
2023-05-17T02:26:00.648Z,99130.63
2023-05-17T02:28:35.969Z,99126.03
2023-05-17T02:31:02.569Z,99133.69
2023-05-17T02:33:29.530Z,99138.69
2023-05-17T02:35:56.146Z,99130.03
2023-05-17T02:38:22.620Z,99141.22
2023-05-17T02:40:49.098Z,99138.38
2023-05-17T02:43:15.589Z,99141.88
2023-05-17T02:45:44.835Z,99139.97
2023-05-17T02:48:11.394Z,99138.91
2023-05-17T02:50:51.433Z,99135.63
2023-05-17T02:53:36.732Z,99143.25
2023-05-17T02:56:03.984Z,99142.38
2023-05-17T02:58:30.673Z,99145.59
2023-05-17T03:00:57.214Z,99140.25
2023-05-17T03:03:23.860Z,99141.84
2023-05-17T03:05:50.492Z,99151.38
2023-05-17T03:08:17.006Z,99135.19
2023-05-17T03:10:43.598Z,99144.47
2023-05-17T03:13:10.229Z,99140.78
2023-05-17T03:15:36.889Z,99142.78
2023-05-17T03:18:11.076Z,99136.94
2023-05-17T03:20:41.775Z,99133.16
2023-05-17T03:23:15.055Z,99135.22
2023-05-17T03:25:41.569Z,99133.59
2023-05-17T03:28:08.080Z,99124.78
2023-05-17T03:30:37.395Z,99132.81
2023-05-17T03:33:04.154Z,99129.91
2023-05-17T03:35:31.045Z,99142.19
2023-05-17T03:37:57.743Z,99142.03
2023-05-17T03:40:24.272Z,99144.78
2023-05-17T03:42:51.735Z,99149.19
2023-05-17T03:45:19.306Z,99153.56
2023-05-17T03:47:46.005Z,99153.34
2023-05-17T03:50:12.621Z,99165.47
2023-05-17T03:52:41.840Z,99173.34
2023-05-17T03:55:09.372Z,99174.56
2023-05-17T03:57:35.924Z,99172.22
2023-05-17T04:00:03.565Z,99178.03
2023-05-17T04:02:30.066Z,99177.38
2023-05-17T04:04:56.711Z,99174.28
2023-05-17T04:07:23.268Z,99174.75
2023-05-17T04:09:49.772Z,99177.59
2023-05-17T04:12:16.350Z,99178.88
2023-05-17T04:14:43.137Z,99182.94
2023-05-17T04:17:09.622Z,99180.00
2023-05-17T04:19:36.180Z,99180.47
2023-05-17T04:22:02.788Z,99172.84
2023-05-17T04:24:29.295Z,99167.09
2023-05-17T04:26:55.834Z,99173.75
2023-05-17T04:29:22.431Z,99164.72
2023-05-17T04:31:49.587Z,99181.63
2023-05-17T04:34:16.242Z,99187.22
2023-05-17T04:36:43.043Z,99184.44
2023-05-17T04:39:09.600Z,99184.44
2023-05-17T04:41:36.143Z,99180.75
2023-05-17T04:44:02.829Z,99194.50
2023-05-17T04:46:29.573Z,99188.72
2023-05-17T04:48:56.337Z,99197.91
2023-05-17T04:51:23.000Z,99198.47
2023-05-17T04:53:49.646Z,99198.13
2023-05-17T04:56:16.458Z,99193.13
2023-05-17T04:58:43.046Z,99197.88
2023-05-17T05:01:09.559Z,99197.81
2023-05-17T05:03:36.704Z,99204.63
2023-05-17T05:06:04.242Z,99211.41
2023-05-17T05:08:33.248Z,99208.56
2023-05-17T05:10:59.761Z,99207.03
2023-05-17T05:13:26.350Z,99209.81
2023-05-17T05:15:52.998Z,99212.91
2023-05-17T05:18:19.663Z,99212.00
2023-05-17T05:20:48.893Z,99206.09
2023-05-17T05:23:15.656Z,99213.28
2023-05-17T05:25:44.018Z,99216.06
2023-05-17T05:28:11.149Z,99207.88
2023-05-17T05:30:37.709Z,99212.66
2023-05-17T05:33:04.820Z,99214.50
2023-05-17T05:35:31.566Z,99218.34
2023-05-17T05:37:59.231Z,99219.88
2023-05-17T05:40:25.984Z,99217.06
2023-05-17T05:42:53.711Z,99221.06
2023-05-17T05:45:21.624Z,99221.06
2023-05-17T05:47:48.597Z,99222.31
2023-05-17T05:50:15.511Z,99220.88
2023-05-17T05:52:42.072Z,99225.81
2023-05-17T05:55:09.162Z,99225.94
2023-05-17T05:57:35.908Z,99234.84
2023-05-17T06:00:04.824Z,99238.69
2023-05-17T06:02:31.620Z,99235.63
2023-05-17T06:04:59.427Z,99232.47
2023-05-17T06:07:26.040Z,99238.16
2023-05-17T06:09:52.615Z,99246.88
2023-05-17T06:12:20.716Z,99250.88
2023-05-17T06:14:47.456Z,99255.47
2023-05-17T06:17:13.958Z,99261.75
2023-05-17T06:19:40.724Z,99253.84
2023-05-17T06:22:07.301Z,99266.41
2023-05-17T06:24:33.930Z,99267.69
2023-05-17T06:27:00.429Z,99265.47
2023-05-17T06:29:27.022Z,99266.16
2023-05-17T06:31:56.281Z,99260.88
2023-05-17T06:34:22.914Z,99267.91
2023-05-17T06:36:49.464Z,99275.19
2023-05-17T06:39:16.013Z,99269.28
2023-05-17T06:41:42.792Z,99269.06
2023-05-17T06:44:09.438Z,99271.16
2023-05-17T06:46:35.990Z,99277.69
2023-05-17T06:49:02.744Z,99277.09
2023-05-17T06:51:29.419Z,99273.50
2023-05-17T06:53:56.013Z,99284.53
2023-05-17T06:56:22.815Z,99274.81
2023-05-17T06:58:49.344Z,99276.72
2023-05-17T07:01:16.867Z,99283.81
2023-05-17T07:03:43.441Z,99282.63
2023-05-17T07:06:10.089Z,99282.28
2023-05-17T07:08:36.609Z,99296.22
2023-05-17T07:11:03.672Z,99287.09
2023-05-17T07:13:32.068Z,99291.50
2023-05-17T07:15:58.621Z,99287.72
2023-05-17T07:18:25.253Z,99286.31
2023-05-17T07:20:51.791Z,99293.03
2023-05-17T07:23:18.479Z,99293.84
2023-05-17T07:25:46.280Z,99294.13
2023-05-17T07:28:12.818Z,99296.59
2023-05-17T07:30:39.521Z,99308.13
2023-05-17T07:33:06.088Z,99307.19
2023-05-17T07:35:32.840Z,99303.75
2023-05-17T07:37:59.562Z,99298.44
2023-05-17T07:40:26.228Z,99301.53
2023-05-17T07:42:53.110Z,99321.69
2023-05-17T07:45:19.733Z,99312.50
2023-05-17T07:47:46.364Z,99304.19
2023-05-17T07:50:13.027Z,99308.16
2023-05-17T07:52:39.724Z,99318.22
2023-05-17T07:55:07.137Z,99323.53
2023-05-17T07:57:33.719Z,99322.22
2023-05-17T08:00:00.561Z,99324.19
2023-05-17T08:02:28.613Z,99326.91
2023-05-17T08:04:55.390Z,99335.38
2023-05-17T08:07:21.921Z,99341.72
2023-05-17T08:09:48.437Z,99333.50
2023-05-17T08:12:14.991Z,99331.03
2023-05-17T08:14:41.568Z,99336.63
2023-05-17T08:17:08.203Z,99334.50
2023-05-17T08:19:34.978Z,99336.78
2023-05-17T08:22:01.634Z,99335.66
2023-05-17T08:24:28.215Z,99337.91
2023-05-17T08:26:54.701Z,99348.88
2023-05-17T08:29:21.309Z,99339.38
2023-05-17T08:31:47.794Z,99332.41
2023-05-17T08:34:14.554Z,99328.16
2023-05-17T08:36:41.270Z,99328.09
2023-05-17T08:39:08.610Z,99329.84
2023-05-17T08:41:38.671Z,99321.63
2023-05-17T08:44:06.334Z,99332.56
2023-05-17T08:46:36.716Z,99334.66
2023-05-17T08:49:06.743Z,99330.88
2023-05-17T08:51:33.733Z,99352.72
2023-05-17T08:54:00.662Z,99345.13
2023-05-17T08:56:31.020Z,99343.75
2023-05-17T08:58:58.935Z,99346.63
2023-05-17T09:01:27.932Z,99347.00
2023-05-17T09:03:55.109Z,99346.72
2023-05-17T09:06:23.486Z,99343.22
2023-05-17T09:08:54.821Z,99346.91
2023-05-17T09:11:33.003Z,99337.91
2023-05-17T09:14:09.107Z,99332.28
2023-05-17T09:16:37.794Z,99334.91
2023-05-17T09:19:07.498Z,99339.13
2023-05-17T09:21:34.378Z,99331.44
2023-05-17T09:26:44.838Z,99333.38
2023-05-17T09:29:16.267Z,99326.91
2023-05-17T09:31:43.979Z,99317.91
2023-05-17T09:34:11.755Z,99330.47
2023-05-17T09:36:43.566Z,99319.16
2023-05-17T09:39:13.013Z,99317.53
2023-05-17T09:41:48.652Z,99324.56
2023-05-17T09:44:16.382Z,99323.59
2023-05-17T09:46:47.158Z,99318.53
2023-05-17T09:49:14.857Z,99328.50
2023-05-17T09:51:43.920Z,99333.19
2023-05-17T09:54:11.833Z,99334.28
2023-05-17T09:56:39.115Z,99336.19
2023-05-17T09:59:16.264Z,99334.09
2023-05-17T10:01:45.867Z,99317.00
2023-05-17T10:04:13.885Z,99325.53
2023-05-17T10:09:14.911Z,99324.34
2023-05-17T10:11:47.001Z,99326.06
2023-05-17T10:14:22.577Z,99326.56
2023-05-17T10:16:51.630Z,99323.78
2023-05-17T10:19:20.972Z,99325.28
2023-05-17T10:21:54.925Z,99335.00
2023-05-17T10:24:23.282Z,99335.53
2023-05-17T10:26:51.277Z,99328.16
2023-05-17T10:29:21.119Z,99322.31
2023-05-17T10:31:52.873Z,99305.16
2023-05-17T10:34:20.744Z,99317.59
2023-05-17T10:36:49.981Z,99309.97
2023-05-17T10:39:17.022Z,99301.50
2023-05-17T10:41:48.549Z,99306.31
2023-05-17T10:44:17.479Z,99306.63
2023-05-17T10:46:59.506Z,99300.69
2023-05-17T10:49:30.204Z,99302.28
2023-05-17T10:52:18.892Z,99291.22
2023-05-17T10:54:53.519Z,99297.72
2023-05-17T10:57:39.098Z,99288.44
2023-05-17T11:00:21.696Z,99297.88
2023-05-17T11:02:49.172Z,99298.69
2023-05-17T11:05:27.204Z,99297.50
2023-05-17T11:08:15.785Z,99291.56
2023-05-17T11:11:18.133Z,99283.84
2023-05-17T11:14:04.261Z,99294.44
2023-05-17T11:16:38.300Z,99300.63
2023-05-17T11:19:11.899Z,99293.16
2023-05-17T11:21:48.746Z,99289.81
2023-05-17T11:24:27.268Z,99288.94
2023-05-17T11:26:55.561Z,99283.44
2023-05-17T11:29:30.788Z,99277.34
2023-05-17T11:31:57.427Z,99270.78
2023-05-17T11:34:25.528Z,99279.88
2023-05-17T11:36:54.632Z,99279.13
2023-05-17T11:39:23.901Z,99293.09
2023-05-17T11:41:56.088Z,99291.81
2023-05-17T11:44:31.463Z,99287.84
2023-05-17T11:47:06.985Z,99277.56
2023-05-17T11:49:37.833Z,99281.44
2023-05-17T11:52:08.566Z,99289.75
2023-05-17T11:54:40.250Z,99292.78
2023-05-17T11:57:07.168Z,99290.34
2023-05-17T11:59:39.713Z,99277.03
2023-05-17T12:02:06.490Z,99272.13
2023-05-17T12:04:39.133Z,99275.47
2023-05-17T12:07:10.464Z,99280.41
2023-05-17T12:09:40.263Z,99280.44
2023-05-17T12:12:07.657Z,99271.00
2023-05-17T12:14:34.629Z,99272.44
2023-05-17T12:17:05.687Z,99280.97
2023-05-17T12:19:33.010Z,99270.38
2023-05-17T12:22:14.617Z,99282.75
2023-05-17T12:24:42.919Z,99286.56
2023-05-17T12:27:10.095Z,99286.22
2023-05-17T12:29:36.747Z,99279.09
2023-05-17T12:32:05.864Z,99270.28
2023-05-17T12:34:32.704Z,99262.81
2023-05-17T12:36:59.439Z,99275.09
2023-05-17T12:39:26.416Z,99277.75
2023-05-17T12:41:54.321Z,99276.44
2023-05-17T12:44:21.181Z,99276.31
2023-05-17T12:46:53.548Z,99278.38
2023-05-17T12:49:23.485Z,99270.72
2023-05-17T12:51:50.221Z,99278.94
2023-05-17T12:54:28.631Z,99277.47
2023-05-17T12:56:56.519Z,99273.91
2023-05-17T12:59:25.871Z,99269.53
2023-05-17T13:01:56.652Z,99275.00
2023-05-17T13:04:34.545Z,99275.41
2023-05-17T13:07:04.527Z,99278.19
2023-05-17T13:09:33.610Z,99292.81
2023-05-17T13:12:05.232Z,99286.84
2023-05-17T13:14:55.012Z,99281.75
2023-05-17T13:17:36.785Z,99280.91
2023-05-17T13:20:05.987Z,99271.63
2023-05-17T13:22:33.833Z,99282.00
2023-05-17T13:25:00.386Z,99286.41
2023-05-17T13:27:28.213Z,99273.88
2023-05-17T13:29:54.723Z,99278.34
2023-05-17T13:32:21.528Z,99273.44
2023-05-17T13:34:48.054Z,99267.81
2023-05-17T13:37:14.655Z,99266.72
2023-05-17T13:39:42.052Z,99265.34
2023-05-17T13:42:10.504Z,99274.63
2023-05-17T13:44:38.433Z,99265.63
2023-05-17T13:47:05.885Z,99259.72
2023-05-17T13:49:32.590Z,99263.06
2023-05-17T13:52:00.530Z,99271.25
2023-05-17T13:54:27.089Z,99256.47
2023-05-17T13:56:55.365Z,99276.47
2023-05-17T13:59:21.864Z,99279.09
2023-05-17T14:01:48.349Z,99273.47
2023-05-17T14:04:14.913Z,99278.78
2023-05-17T14:06:42.205Z,99281.44
2023-05-17T14:09:10.368Z,99291.97
2023-05-17T14:11:36.930Z,99276.31
2023-05-17T14:14:04.223Z,99283.44
2023-05-17T14:16:31.127Z,99278.44
2023-05-17T14:18:57.739Z,99267.59
2023-05-17T14:21:24.369Z,99275.88
2023-05-17T14:23:50.927Z,99273.50
2023-05-17T14:26:17.569Z,99286.88
2023-05-17T14:28:44.068Z,99284.72
2023-05-17T14:31:10.768Z,99281.75
2023-05-17T14:33:37.476Z,99285.66
2023-05-17T14:36:04.614Z,99273.19
2023-05-17T14:38:31.369Z,99268.56
2023-05-17T14:41:00.616Z,99260.25
2023-05-17T14:43:28.764Z,99268.06
2023-05-17T14:45:55.330Z,99269.50
2023-05-17T14:48:22.333Z,99258.84
2023-05-17T14:50:49.154Z,99264.09
2023-05-17T14:53:16.399Z,99266.47
2023-05-17T14:55:43.344Z,99259.88
2023-05-17T14:58:12.931Z,99271.50
2023-05-17T15:00:41.581Z,99266.72
2023-05-17T15:03:09.100Z,99272.19
2023-05-17T15:05:36.066Z,99273.78
2023-05-17T15:08:02.606Z,99279.09
2023-05-17T15:10:29.891Z,99271.59
2023-05-17T15:12:56.511Z,99270.75
2023-05-17T15:15:23.204Z,99270.66
2023-05-17T15:17:49.789Z,99269.75
2023-05-17T15:20:18.239Z,99265.03
2023-05-17T15:22:44.826Z,99269.13
2023-05-17T15:25:11.457Z,99267.25
2023-05-17T15:27:38.024Z,99286.03
2023-05-17T15:30:05.380Z,99267.13
2023-05-17T15:32:34.248Z,99276.19
2023-05-17T15:35:00.868Z,99277.75
2023-05-17T15:37:27.666Z,99274.88
2023-05-17T15:39:54.165Z,99271.06
2023-05-17T15:42:20.643Z,99272.22
2023-05-17T15:44:47.164Z,99273.31
2023-05-17T15:47:13.788Z,99269.53
2023-05-17T15:49:41.247Z,99271.25
2023-05-17T15:52:07.817Z,99278.63
2023-05-17T15:54:34.316Z,99274.63
2023-05-17T15:57:01.030Z,99275.47
2023-05-17T15:59:27.591Z,99281.63
2023-05-17T16:01:54.197Z,99274.41
2023-05-17T16:04:20.777Z,99283.84
2023-05-17T16:06:47.359Z,99283.25
2023-05-17T16:09:14.369Z,99290.13
2023-05-17T16:11:40.873Z,99276.38
2023-05-17T16:14:07.411Z,99273.47
2023-05-17T16:16:33.956Z,99281.22
2023-05-17T16:19:01.092Z,99289.13
2023-05-17T16:21:27.658Z,99288.44
2023-05-17T16:23:54.207Z,99282.16
2023-05-17T16:26:21.138Z,99289.13
2023-05-17T16:28:48.108Z,99290.13
2023-05-17T16:31:14.719Z,99293.75
2023-05-17T16:33:42.380Z,99296.53
2023-05-17T16:36:09.002Z,99281.81
2023-05-17T16:38:35.831Z,99286.38
2023-05-17T16:41:03.286Z,99287.59
2023-05-17T16:43:31.121Z,99290.13
2023-05-17T16:45:57.757Z,99295.94
2023-05-17T16:48:24.496Z,99302.56
2023-05-17T16:50:51.547Z,99300.00
2023-05-17T16:53:18.728Z,99295.81
2023-05-17T16:55:45.629Z,99310.66
2023-05-17T16:58:12.188Z,99296.72
2023-05-17T17:00:38.933Z,99301.44
2023-05-17T17:03:09.000Z,99303.75
2023-05-17T17:05:36.421Z,99302.91
2023-05-17T17:08:03.067Z,99301.69
2023-05-17T17:10:30.051Z,99300.72
2023-05-17T17:12:57.155Z,99308.00
2023-05-17T17:15:23.882Z,99311.97
2023-05-17T17:17:50.751Z,99315.38
2023-05-17T17:20:17.956Z,99322.00
2023-05-17T17:22:44.617Z,99307.69
2023-05-17T17:25:11.259Z,99313.06
2023-05-17T17:27:37.806Z,99311.06
2023-05-17T17:30:05.464Z,99313.34
2023-05-17T17:32:32.380Z,99312.38
2023-05-17T17:34:59.039Z,99327.31
2023-05-17T17:37:25.638Z,99314.53
2023-05-17T17:39:52.269Z,99330.94
2023-05-17T17:42:19.392Z,99322.75
2023-05-17T17:44:46.017Z,99320.91
2023-05-17T17:47:12.823Z,99319.59
2023-05-17T17:49:39.493Z,99334.22
2023-05-17T17:52:06.277Z,99326.09
2023-05-17T17:54:32.846Z,99322.84
2023-05-17T17:56:59.399Z,99327.38
2023-05-17T17:59:25.929Z,99331.56
2023-05-17T18:01:52.716Z,99331.69
2023-05-17T18:04:19.462Z,99334.66
2023-05-17T18:06:46.131Z,99333.25
2023-05-17T18:09:12.779Z,99333.47
2023-05-17T18:11:39.313Z,99333.38
2023-05-17T18:14:07.045Z,99336.81
2023-05-17T18:16:34.084Z,99341.91
2023-05-17T18:19:01.004Z,99342.25
2023-05-17T18:21:29.336Z,99340.75
2023-05-17T18:23:55.969Z,99342.38
2023-05-17T18:26:23.259Z,99346.38
2023-05-17T18:28:50.924Z,99341.53
2023-05-17T18:31:18.373Z,99342.19
2023-05-17T18:33:45.346Z,99338.50
2023-05-17T18:36:12.068Z,99353.47
2023-05-17T18:38:38.727Z,99341.78
2023-05-17T18:41:05.294Z,99345.53
2023-05-17T18:43:31.894Z,99342.91
2023-05-17T18:45:58.472Z,99352.94
2023-05-17T18:48:25.222Z,99354.88
2023-05-17T18:50:51.800Z,99354.63
2023-05-17T18:53:18.358Z,99356.03
2023-05-17T18:55:45.017Z,99358.75
2023-05-17T18:58:11.549Z,99352.31
2023-05-17T19:00:38.262Z,99357.69
2023-05-17T19:03:04.929Z,99358.44
2023-05-17T19:05:31.588Z,99355.00
2023-05-17T19:07:58.149Z,99363.53
2023-05-17T19:10:24.753Z,99359.03
2023-05-17T19:12:51.292Z,99361.88
2023-05-17T19:15:18.010Z,99374.34
2023-05-17T19:17:45.237Z,99375.13
2023-05-17T19:20:12.337Z,99372.03
2023-05-17T19:22:38.869Z,99376.66
2023-05-17T19:25:06.530Z,99376.03
2023-05-17T19:27:33.057Z,99380.63
2023-05-17T19:29:59.542Z,99384.34
2023-05-17T19:32:26.880Z,99390.47
2023-05-17T19:34:54.707Z,99388.19
2023-05-17T19:37:21.406Z,99390.06
2023-05-17T19:39:47.977Z,99393.06
2023-05-17T19:42:14.530Z,99400.91
2023-05-17T19:44:41.092Z,99400.53
2023-05-17T19:47:07.675Z,99399.28
2023-05-17T19:49:34.269Z,99397.44
2023-05-17T19:52:01.197Z,99396.56
2023-05-17T19:54:29.523Z,99398.03
2023-05-17T19:56:57.177Z,99389.03
2023-05-17T19:59:23.703Z,99397.38
2023-05-17T20:01:50.884Z,99389.72
2023-05-17T20:04:20.468Z,99397.84
2023-05-17T20:06:47.113Z,99385.78
2023-05-17T20:09:13.659Z,99392.66
2023-05-17T20:11:40.297Z,99392.97
2023-05-17T20:14:06.972Z,99398.66
2023-05-17T20:16:33.565Z,99393.97
2023-05-17T20:19:00.952Z,99400.69
2023-05-17T20:21:27.992Z,99399.69
2023-05-17T20:24:01.125Z,99400.56
2023-05-17T20:26:31.934Z,99400.44
2023-05-17T20:28:59.117Z,99408.03
2023-05-17T20:31:29.030Z,99405.31
2023-05-17T20:33:55.614Z,99400.59
2023-05-17T20:36:22.197Z,99408.28
2023-05-17T20:38:48.859Z,99409.66
2023-05-17T20:41:15.944Z,99407.47
2023-05-17T20:43:47.029Z,99422.00
2023-05-17T20:46:14.005Z,99407.38
2023-05-17T20:48:42.956Z,99415.47
2023-05-17T20:51:10.699Z,99417.78
2023-05-17T20:53:37.792Z,99423.47
2023-05-17T20:56:06.291Z,99411.41
2023-05-17T20:58:33.645Z,99421.00
2023-05-17T21:01:01.122Z,99421.13
2023-05-17T21:03:33.105Z,99423.06
2023-05-17T21:06:02.005Z,99415.25
2023-05-17T21:08:28.688Z,99416.78
2023-05-17T21:10:56.075Z,99424.66
2023-05-17T21:13:25.349Z,99419.53
2023-05-17T21:15:55.869Z,99420.13
2023-05-17T21:18:25.838Z,99425.28
2023-05-17T21:20:53.248Z,99423.84
2023-05-17T21:23:20.161Z,99420.38
2023-05-17T21:25:47.359Z,99421.28
2023-05-17T21:28:14.058Z,99432.13
2023-05-17T21:30:40.633Z,99425.75
2023-05-17T21:33:07.291Z,99425.69
2023-05-17T21:35:33.927Z,99423.44
2023-05-17T21:38:00.525Z,99423.69
2023-05-17T21:40:27.126Z,99424.50
2023-05-17T21:42:53.650Z,99425.09
2023-05-17T21:45:20.331Z,99427.16
2023-05-17T21:47:47.077Z,99428.50
2023-05-17T21:50:13.814Z,99428.63
2023-05-17T21:52:40.536Z,99430.91
2023-05-17T21:55:08.628Z,99424.94
2023-05-17T21:57:36.545Z,99438.19
2023-05-17T22:00:07.755Z,99432.69
2023-05-17T22:02:35.819Z,99436.91
2023-05-17T22:05:02.706Z,99439.84
2023-05-17T22:07:29.309Z,99438.84
2023-05-17T22:09:58.852Z,99437.63
2023-05-17T22:12:26.192Z,99439.88
2023-05-17T22:14:55.698Z,99437.84
2023-05-17T22:17:39.320Z,99440.13
2023-05-17T22:20:14.267Z,99442.16
2023-05-17T22:22:40.826Z,99437.66
2023-05-17T22:25:08.378Z,99439.41
2023-05-17T22:27:35.070Z,99442.59
2023-05-17T22:30:01.649Z,99428.53
2023-05-17T22:32:28.197Z,99432.97
2023-05-17T22:34:56.163Z,99431.50
2023-05-17T22:37:23.568Z,99428.16
2023-05-17T22:39:50.370Z,99432.63
2023-05-17T22:42:16.971Z,99431.25
2023-05-17T22:44:43.471Z,99435.53
2023-05-17T22:47:14.572Z,99431.16
2023-05-17T22:49:41.688Z,99433.72
2023-05-17T22:52:22.928Z,99429.88
2023-05-17T22:54:49.477Z,99427.25
2023-05-17T22:57:16.111Z,99427.94
2023-05-17T22:59:43.952Z,99430.19
2023-05-17T23:02:12.113Z,99429.41
2023-05-17T23:04:40.004Z,99427.09
2023-05-17T23:07:10.117Z,99427.63
2023-05-17T23:09:40.395Z,99428.84
2023-05-17T23:12:08.778Z,99425.56
2023-05-17T23:14:36.535Z,99425.56
2023-05-17T23:17:12.128Z,99427.88
2023-05-17T23:19:40.403Z,99426.53
2023-05-17T23:22:10.673Z,99427.09
2023-05-17T23:25:02.258Z,99431.50
2023-05-17T23:27:33.159Z,99428.91
2023-05-17T23:30:00.945Z,99426.41
2023-05-17T23:32:32.245Z,99422.22
2023-05-17T23:35:03.264Z,99428.56
2023-05-17T23:37:32.046Z,99427.63
2023-05-17T23:39:59.412Z,99421.47
2023-05-17T23:42:32.222Z,99427.69
2023-05-17T23:45:00.451Z,99421.91
2023-05-17T23:47:33.794Z,99430.34
2023-05-17T23:50:00.992Z,99422.59
2023-05-17T23:52:29.915Z,99424.13
2023-05-17T23:54:57.725Z,99418.50
2023-05-17T23:57:24.753Z,99423.75
2023-05-17T23:59:51.283Z,99423.75
